Time;durP1;ratioP1;P1;durP2;ratioP2;P2;SDS_P1;SDS_P2;PMS_P1;PMS_P2;Temp;Humidity;BMP_temperature;BMP_pressure;BME280_temperature;BME280_humidity;BME280_pressure;Samples;Min_cycle;Max_cycle;Signal;HPM_P1;HPM_P2
2022/05/27 00:01:28;;;;;;;2.23;0.70;;;19.20;96.80;;;;;;5001767;28;20668;-80
2022/05/27 00:03:57;;;;;;;2.73;0.70;;;19.20;97.00;;;;;;5028189;28;20600;-80
2022/05/27 00:06:23;;;;;;;1.70;0.60;;;19.10;97.00;;;;;;5027795;28;20592;-80
2022/05/27 00:08:48;;;;;;;1.47;0.70;;;19.10;97.10;;;;;;5017698;28;20569;-80
2022/05/27 00:11:14;;;;;;;1.60;0.70;;;19.10;97.10;;;;;;5030959;28;20932;-80
2022/05/27 00:13:41;;;;;;;2.27;0.87;;;19.10;97.20;;;;;;5026500;28;20205;-80
2022/05/27 00:16:08;;;;;;;2.70;1.00;;;19.10;97.30;;;;;;5025101;28;20671;-80
2022/05/27 00:18:34;;;;;;;1.83;0.80;;;19.10;97.40;;;;;;5018642;28;20581;-80
2022/05/27 00:21:00;;;;;;;2.37;1.00;;;19.10;97.40;;;;;;5029494;28;20576;-80
2022/05/27 00:23:27;;;;;;;1.70;0.90;;;19.10;97.40;;;;;;5018255;28;20974;-80
2022/05/27 00:25:52;;;;;;;2.17;0.97;;;19.10;97.50;;;;;;5023336;28;20577;-80
2022/05/27 00:28:18;;;;;;;3.30;1.67;;;19.10;97.60;;;;;;5015625;28;21089;-82
2022/05/27 00:30:44;;;;;;;2.90;1.30;;;19.10;97.60;;;;;;5033025;28;20188;-79
2022/05/27 00:33:10;;;;;;;4.70;1.10;;;19.00;97.70;;;;;;5037042;28;20213;-80
2022/05/27 00:35:36;;;;;;;3.30;1.17;;;19.10;97.80;;;;;;5030333;28;20625;-79
2022/05/27 00:38:02;;;;;;;2.77;1.20;;;19.00;97.80;;;;;;5026586;28;21137;-78
2022/05/27 00:40:40;;;;;;;1.97;1.50;;;19.00;98.00;;;;;;5008147;28;20656;-80
2022/05/27 00:43:06;;;;;;;3.10;1.03;;;19.00;98.40;;;;;;5031046;28;20689;-80
2022/05/27 00:45:34;;;;;;;2.77;1.10;;;18.90;98.20;;;;;;5018897;28;20573;-80
2022/05/27 00:48:03;;;;;;;1.60;1.00;;;18.80;98.30;;;;;;5023102;28;20688;-80
2022/05/27 00:50:32;;;;;;;5.83;1.70;;;18.90;98.50;;;;;;5025714;28;20622;-80
2022/05/27 00:53:01;;;;;;;2.13;1.20;;;18.80;98.50;;;;;;5037435;22;20648;-72
2022/05/27 00:55:33;;;;;;;5.40;1.20;;;18.80;98.50;;;;;;5002639;28;20660;-73
2022/05/27 00:58:09;;;;;;;5.30;1.73;;;18.80;98.60;;;;;;4979280;28;20594;-73
2022/05/27 01:00:36;;;;;;;2.23;1.50;;;18.70;98.70;;;;;;5008348;28;20612;-73
2022/05/27 01:03:04;;;;;;;2.67;1.90;;;18.70;98.70;;;;;;4997010;28;20606;-73
2022/05/27 01:05:30;;;;;;;2.03;1.70;;;18.70;98.90;;;;;;5006833;28;20724;-73
2022/05/27 01:08:00;;;;;;;2.10;1.33;;;18.70;99.00;;;;;;5002977;28;21150;-73
2022/05/27 01:10:27;;;;;;;2.90;1.60;;;18.60;99.10;;;;;;4998610;28;20175;-73
2022/05/27 01:13:25;;;;;;;3.10;1.57;;;18.60;99.20;;;;;;5009199;28;20577;-73
2022/05/27 01:16:03;;;;;;;2.33;1.60;;;18.60;99.80;;;;;;5002022;28;20677;-73
2022/05/27 01:21:41;;;;;;;5.00;1.90;;;18.50;99.90;;;;;;4982569;28;20578;-72
2022/05/27 01:24:32;;;;;;;2.67;1.10;;;18.50;99.90;;;;;;5008760;28;20617;-73
2022/05/27 01:27:12;;;;;;;2.23;1.57;;;18.40;99.90;;;;;;4999418;28;20590;-73
2022/05/27 01:30:15;;;;;;;2.77;1.50;;;18.50;99.90;;;;;;4999663;28;20581;-73
2022/05/27 01:33:17;;;;;;;3.67;1.70;;;18.40;99.90;;;;;;4996844;28;20585;-73
2022/05/27 01:35:58;;;;;;;4.80;1.40;;;18.50;99.90;;;;;;4958595;28;20647;-72
2022/05/27 01:38:44;;;;;;;4.80;1.13;;;18.50;99.90;;;;;;5006325;28;20581;-72
2022/05/27 01:41:09;;;;;;;2.57;1.30;;;18.50;99.90;;;;;;4977970;28;20677;-73
2022/05/27 01:43:48;;;;;;;4.27;1.37;;;18.50;99.90;;;;;;5005540;28;20645;-73
2022/05/27 01:46:16;;;;;;;2.20;1.73;;;18.50;99.90;;;;;;5003973;28;20182;-73
2022/05/27 01:49:04;;;;;;;2.10;1.20;;;18.40;99.90;;;;;;4996624;28;20574;-72
2022/05/27 01:51:44;;;;;;;2.10;1.20;;;18.40;99.90;;;;;;4984550;28;20577;-73
2022/05/27 01:54:24;;;;;;;4.23;1.30;;;18.40;99.90;;;;;;5000724;28;20622;-73
2022/05/27 01:56:59;;;;;;;4.80;1.30;;;18.40;99.90;;;;;;5008668;28;20620;-73
2022/05/27 01:59:43;;;;;;;2.73;1.70;;;18.40;99.90;;;;;;4979834;28;20601;-73
2022/05/27 02:02:21;;;;;;;2.20;1.27;;;18.40;99.90;;;;;;5002092;28;20587;-73
2022/05/27 02:05:05;;;;;;;1.90;1.10;;;18.40;99.90;;;;;;5008276;28;20619;-73
2022/05/27 02:07:36;;;;;;;3.03;1.43;;;18.40;99.90;;;;;;4979026;28;21117;-73
2022/05/27 02:10:17;;;;;;;5.53;1.50;;;18.40;99.90;;;;;;5001907;28;20581;-73
2022/05/27 02:13:16;;;;;;;3.00;1.40;;;18.40;99.90;;;;;;4996075;28;20718;-73
2022/05/27 02:15:45;;;;;;;2.00;1.10;;;18.30;99.90;;;;;;4970636;28;20655;-73
2022/05/27 02:18:14;;;;;;;3.53;1.30;;;18.40;99.90;;;;;;5000274;28;20632;-73
2022/05/27 02:20:47;;;;;;;2.70;1.10;;;18.40;99.90;;;;;;4989299;28;21016;-73
2022/05/27 02:23:35;;;;;;;4.10;1.00;;;18.40;99.90;;;;;;4980505;28;20609;-72
2022/05/27 02:26:09;;;;;;;4.00;2.03;;;18.30;99.90;;;;;;4983831;28;20590;-73
2022/05/27 02:28:41;;;;;;;3.00;1.37;;;18.30;99.90;;;;;;5006868;28;21132;-73
2022/05/27 02:31:35;;;;;;;2.60;1.00;;;18.30;99.90;;;;;;4977264;28;20582;-73
2022/05/27 02:36:59;;;;;;;2.30;1.30;;;18.30;99.90;;;;;;5008093;28;20629;-73
2022/05/27 02:39:26;;;;;;;1.97;0.80;;;18.30;99.90;;;;;;4997323;28;20631;-73
2022/05/27 02:42:14;;;;;;;3.23;0.90;;;18.30;99.90;;;;;;5001146;28;20614;-73
2022/05/27 02:45:06;;;;;;;2.60;1.00;;;18.30;99.90;;;;;;4989997;28;20609;-73
2022/05/27 02:47:47;;;;;;;1.77;1.00;;;18.30;99.90;;;;;;4987112;28;20586;-73
2022/05/27 02:50:37;;;;;;;5.17;1.20;;;18.30;99.90;;;;;;5003444;28;21101;-73
2022/05/27 02:53:26;;;;;;;1.77;0.83;;;18.20;99.90;;;;;;4982034;28;20589;-73
2022/05/27 02:56:13;;;;;;;2.23;0.90;;;18.20;99.90;;;;;;4979484;28;21218;-72
2022/05/27 02:58:39;;;;;;;4.73;1.00;;;18.10;99.90;;;;;;4997976;28;20617;-73
2022/05/27 03:01:05;;;;;;;1.80;1.00;;;18.10;99.90;;;;;;5010868;28;20650;-73
2022/05/27 03:03:32;;;;;;;2.47;1.10;;;18.00;99.90;;;;;;5001925;28;20190;-73
2022/05/27 03:06:26;;;;;;;2.93;1.10;;;18.00;99.90;;;;;;5005152;28;20628;-73
2022/05/27 03:09:07;;;;;;;2.13;0.90;;;18.00;99.90;;;;;;5011475;28;20609;-73
2022/05/27 03:11:39;;;;;;;3.80;1.03;;;18.00;99.90;;;;;;5001478;28;20572;-73
2022/05/27 03:14:41;;;;;;;2.30;0.80;;;17.90;99.90;;;;;;4986855;28;20679;-73
2022/05/27 03:17:42;;;;;;;3.00;1.10;;;17.90;99.90;;;;;;4998252;28;20632;-73
2022/05/27 03:20:22;;;;;;;2.10;1.00;;;17.90;99.90;;;;;;4985740;28;20586;-73
2022/05/27 03:23:00;;;;;;;2.30;0.80;;;17.90;99.90;;;;;;5011193;28;20592;-73
2022/05/27 03:25:41;;;;;;;3.60;0.90;;;17.80;99.90;;;;;;5000704;28;20604;-73
2022/05/27 03:28:13;;;;;;;1.60;0.70;;;17.80;99.90;;;;;;5003023;28;20589;-73
2022/05/27 03:30:46;;;;;;;1.43;0.80;;;17.70;99.90;;;;;;5009766;28;20569;-73
2022/05/27 03:33:39;;;;;;;3.00;1.20;;;17.70;99.90;;;;;;4982872;28;20944;-73
2022/05/27 03:36:19;;;;;;;2.27;0.90;;;17.60;99.90;;;;;;5003969;28;20647;-73
2022/05/27 03:39:16;;;;;;;2.43;0.90;;;17.60;99.90;;;;;;5011320;28;20588;-73
2022/05/27 03:42:05;;;;;;;3.77;0.90;;;17.60;99.90;;;;;;4990375;28;20583;-73
2022/05/27 03:44:31;;;;;;;4.50;1.60;;;17.50;99.90;;;;;;5000451;28;20618;-72
2022/05/27 03:46:58;;;;;;;1.70;0.70;;;17.50;99.90;;;;;;5010936;28;20585;-73
2022/05/27 03:49:25;;;;;;;3.60;0.97;;;17.40;99.90;;;;;;4982217;28;20612;-73
2022/05/27 03:52:08;;;;;;;2.53;1.07;;;17.40;99.90;;;;;;5004866;28;20574;-73
2022/05/27 03:54:34;;;;;;;2.00;0.90;;;17.30;99.90;;;;;;5009690;28;20636;-73
2022/05/27 03:57:00;;;;;;;3.37;1.43;;;17.30;99.90;;;;;;4998009;28;20636;-73
2022/05/27 03:59:26;;;;;;;1.83;0.95;;;17.20;99.90;;;;;;5008074;28;20578;-73
2022/05/27 04:01:55;;;;;;;3.80;1.30;;;17.20;99.90;;;;;;5003503;28;20253;-73
2022/05/27 04:04:25;;;;;;;3.90;1.40;;;17.20;99.90;;;;;;5001197;28;20673;-74
2022/05/27 04:06:51;;;;;;;3.33;1.07;;;17.10;99.90;;;;;;5010482;28;20620;-74
2022/05/27 04:09:19;;;;;;;5.13;1.37;;;17.10;99.90;;;;;;4980040;28;20939;-74
2022/05/27 04:11:45;;;;;;;4.60;1.30;;;17.00;99.90;;;;;;5005597;28;20589;-74
2022/05/27 04:14:12;;;;;;;3.00;1.47;;;17.00;99.90;;;;;;5005984;28;20605;-73
2022/05/27 04:16:38;;;;;;;3.77;1.50;;;17.00;99.90;;;;;;4998884;28;20621;-73
2022/05/27 04:19:04;;;;;;;2.40;1.17;;;17.00;99.90;;;;;;5010584;28;21298;-73
2022/05/27 04:21:30;;;;;;;3.13;1.37;;;17.00;99.90;;;;;;4999405;28;20952;-74
2022/05/27 04:23:56;;;;;;;2.90;1.07;;;17.00;99.90;;;;;;5003989;28;20709;-74
2022/05/27 04:26:22;;;;;;;2.50;1.40;;;17.00;99.90;;;;;;5007401;28;20573;-74
2022/05/27 04:28:48;;;;;;;3.10;1.20;;;17.00;99.90;;;;;;4997576;28;20592;-74
2022/05/27 04:31:14;;;;;;;2.73;1.00;;;17.00;99.90;;;;;;5008986;28;20599;-73
2022/05/27 04:33:40;;;;;;;2.50;1.00;;;17.00;99.90;;;;;;4983721;28;20198;-74
2022/05/27 04:36:07;;;;;;;2.20;1.20;;;17.00;99.90;;;;;;5002202;28;20656;-73
2022/05/27 04:38:33;;;;;;;2.43;1.27;;;17.00;99.90;;;;;;5008466;28;20584;-74
2022/05/27 04:40:59;;;;;;;2.37;1.30;;;17.10;99.90;;;;;;4996365;28;20574;-73
2022/05/27 04:43:25;;;;;;;3.63;1.00;;;17.10;99.90;;;;;;5008002;28;20706;-74
2022/05/27 04:45:51;;;;;;;2.30;1.20;;;17.10;99.90;;;;;;5002671;28;20635;-74
2022/05/27 04:48:18;;;;;;;1.90;1.00;;;17.10;99.90;;;;;;5000947;28;21195;-74
2022/05/27 04:50:44;;;;;;;1.43;1.00;;;17.10;99.90;;;;;;5008659;28;20593;-74
2022/05/27 04:53:10;;;;;;;3.30;1.53;;;17.10;99.90;;;;;;4996832;28;20676;-74
2022/05/27 04:55:38;;;;;;;2.40;1.13;;;17.10;99.90;;;;;;5006336;28;20652;-74
2022/05/27 04:58:05;;;;;;;2.63;1.03;;;17.20;99.90;;;;;;5004117;28;21360;-74
2022/05/27 05:00:35;;;;;;;2.20;0.97;;;17.20;99.90;;;;;;4980681;28;20689;-74
2022/05/27 05:03:01;;;;;;;2.70;1.23;;;17.20;99.90;;;;;;5009631;28;20581;-74
2022/05/27 05:05:29;;;;;;;3.20;1.10;;;17.20;99.90;;;;;;4999091;28;20592;-74
2022/05/27 05:07:58;;;;;;;2.67;1.20;;;17.20;99.90;;;;;;5004224;28;20583;-74
2022/05/27 05:10:24;;;;;;;2.53;1.30;;;17.10;99.90;;;;;;5005951;28;20928;-74
2022/05/27 05:12:51;;;;;;;2.13;1.30;;;17.20;99.90;;;;;;4996605;28;20570;-73
2022/05/27 05:15:19;;;;;;;1.80;0.80;;;17.20;99.90;;;;;;5008578;28;20605;-74
2022/05/27 05:17:46;;;;;;;2.80;1.13;;;17.20;99.90;;;;;;4997798;28;21004;-74
2022/05/27 05:20:14;;;;;;;2.10;1.30;;;17.20;99.90;;;;;;4997813;28;20594;-74
2022/05/27 05:22:40;;;;;;;1.83;1.33;;;17.20;99.90;;;;;;4992729;28;20609;-74
2022/05/27 05:25:07;;;;;;;2.17;1.03;;;17.30;99.90;;;;;;5008981;28;20609;-74
2022/05/27 05:27:34;;;;;;;2.07;0.97;;;17.20;99.90;;;;;;4999655;28;20597;-74
2022/05/27 05:30:01;;;;;;;3.80;1.20;;;17.20;99.90;;;;;;5001781;28;20578;-74
2022/05/27 05:32:27;;;;;;;2.97;1.30;;;17.20;99.90;;;;;;5006552;28;20525;-74
2022/05/27 05:34:54;;;;;;;2.30;1.30;;;17.20;99.90;;;;;;4995946;28;20610;-73
2022/05/27 05:37:19;;;;;;;2.43;1.10;;;17.10;99.90;;;;;;5008010;28;20633;-73
2022/05/27 05:39:46;;;;;;;2.10;1.00;;;17.10;99.90;;;;;;5000171;28;20596;-73
2022/05/27 05:42:12;;;;;;;1.97;1.17;;;17.10;99.90;;;;;;4983106;28;20590;-73
2022/05/27 05:44:38;;;;;;;3.10;1.40;;;17.00;99.90;;;;;;4990353;28;20601;-73
2022/05/27 05:47:04;;;;;;;1.60;1.10;;;17.00;99.90;;;;;;4995762;28;20641;-73
2022/05/27 05:49:29;;;;;;;1.70;1.20;;;17.00;99.90;;;;;;5010224;28;20565;-73
2022/05/27 05:51:58;;;;;;;2.27;1.10;;;17.00;99.90;;;;;;5012231;28;20575;-73
2022/05/27 05:54:25;;;;;;;2.90;1.23;;;17.00;99.90;;;;;;4994512;28;20213;-74
2022/05/27 05:56:52;;;;;;;1.90;1.10;;;16.90;99.90;;;;;;5012409;28;20256;-73
2022/05/27 05:59:19;;;;;;;3.03;1.30;;;17.00;99.90;;;;;;5011813;28;20619;-73
2022/05/27 06:01:45;;;;;;;1.40;1.03;;;16.90;99.90;;;;;;5011818;28;20573;-73
2022/05/27 06:04:12;;;;;;;3.50;1.27;;;16.90;99.90;;;;;;4994517;28;21164;-73
2022/05/27 06:06:38;;;;;;;1.60;1.13;;;16.90;99.90;;;;;;5010874;28;20728;-73
2022/05/27 06:09:06;;;;;;;3.63;1.30;;;16.90;99.90;;;;;;5012092;28;20565;-73
2022/05/27 06:11:32;;;;;;;2.60;1.40;;;16.90;99.90;;;;;;5010273;28;20905;-74
2022/05/27 06:13:57;;;;;;;2.40;1.43;;;16.90;99.90;;;;;;4985377;28;20706;-73
2022/05/27 06:16:23;;;;;;;1.93;0.90;;;16.90;99.90;;;;;;4991351;28;20634;-74
2022/05/27 06:18:49;;;;;;;2.50;0.80;;;16.80;99.90;;;;;;4991401;28;20178;-74
2022/05/27 06:21:16;;;;;;;2.90;0.70;;;16.80;99.90;;;;;;4987864;28;20175;-74
2022/05/27 06:23:42;;;;;;;1.40;0.80;;;16.70;99.90;;;;;;4991727;28;20195;-75
2022/05/27 06:26:10;;;;;;;1.60;0.70;;;16.60;99.90;;;;;;4991247;28;20602;-74
2022/05/27 06:34:25;;;;;;;1.65;0.80;;;16.30;99.90;;;;;;4991738;28;21271;-73
2022/05/27 06:37:07;;;;;;;2.33;0.80;;;16.30;99.90;;;;;;4984440;28;20306;-74
2022/05/27 06:39:35;;;;;;;2.60;1.00;;;16.20;99.90;;;;;;4990774;28;20963;-74
2022/05/27 06:42:08;;;;;;;3.08;1.00;;;16.20;99.90;;;;;;4990650;28;21145;-73
2022/05/27 06:44:34;;;;;;;3.10;1.93;;;16.20;99.90;;;;;;4991853;28;20191;-73
2022/05/27 06:47:00;;;;;;;3.97;1.50;;;16.20;99.90;;;;;;4991600;28;20559;-74
2022/05/27 06:49:26;;;;;;;3.10;1.83;;;16.20;99.90;;;;;;4960918;28;20594;-74
2022/05/27 06:51:52;;;;;;;2.70;1.63;;;16.30;99.90;;;;;;4991540;28;20582;-74
2022/05/27 06:54:19;;;;;;;2.20;1.70;;;16.30;99.90;;;;;;4992047;28;20242;-74
2022/05/27 06:56:47;;;;;;;1.60;1.03;;;16.30;99.90;;;;;;4990425;28;20218;-73
2022/05/27 06:59:14;;;;;;;2.40;1.40;;;16.30;99.90;;;;;;4987527;28;21379;-73
2022/05/27 07:01:40;;;;;;;1.80;1.60;;;16.30;99.90;;;;;;4986040;28;20968;-73
2022/05/27 07:04:06;;;;;;;3.00;1.33;;;16.30;99.90;;;;;;4991434;28;20660;-74
2022/05/27 07:06:37;;;;;;;2.20;1.10;;;16.30;99.90;;;;;;4991418;28;20602;-74
2022/05/27 07:09:06;;;;;;;3.77;1.20;;;16.30;99.90;;;;;;4991200;28;20241;-74
2022/05/27 07:11:33;;;;;;;3.00;1.30;;;16.30;99.90;;;;;;4990177;28;20574;-74
2022/05/27 07:13:59;;;;;;;2.83;0.87;;;16.30;99.90;;;;;;4990206;28;20199;-74
2022/05/27 07:16:26;;;;;;;1.80;1.00;;;16.30;99.90;;;;;;4990535;28;20629;-74
2022/05/27 07:18:53;;;;;;;1.80;1.00;;;16.20;99.90;;;;;;4991022;28;20620;-74
2022/05/27 07:21:19;;;;;;;1.52;0.90;;;16.30;99.90;;;;;;4989660;28;20179;-74
2022/05/27 07:23:45;;;;;;;2.55;1.10;;;16.20;99.90;;;;;;4991688;28;20270;-74
2022/05/27 07:26:11;;;;;;;4.23;1.13;;;16.30;99.90;;;;;;4991353;28;20270;-74
2022/05/27 07:28:37;;;;;;;1.50;0.90;;;16.20;99.90;;;;;;4987085;28;20640;-74
2022/05/27 07:31:03;;;;;;;2.83;0.80;;;16.10;99.90;;;;;;4990550;28;20183;-74
2022/05/27 07:33:29;;;;;;;2.60;0.80;;;16.10;99.90;;;;;;4991240;28;20286;-74
2022/05/27 07:35:55;;;;;;;1.92;0.80;;;16.00;99.90;;;;;;4991466;28;20199;-74
2022/05/27 07:38:22;;;;;;;1.77;1.00;;;15.90;99.90;;;;;;4990217;28;20175;-74
2022/05/27 07:40:48;;;;;;;2.33;0.93;;;15.90;99.90;;;;;;4990674;28;20175;-74
2022/05/27 07:43:14;;;;;;;2.43;1.03;;;15.90;99.90;;;;;;4990094;28;20193;-74
2022/05/27 07:45:42;;;;;;;3.07;1.00;;;15.90;99.90;;;;;;4983111;28;20620;-74
2022/05/27 07:48:10;;;;;;;2.42;0.90;;;15.90;99.90;;;;;;4991675;28;20574;-74
2022/05/27 07:50:36;;;;;;;2.58;0.90;;;16.00;99.90;;;;;;4993750;28;20607;-74
2022/05/27 07:53:03;;;;;;;2.67;1.00;;;16.10;99.90;;;;;;4994855;28;20167;-74
2022/05/27 07:55:30;;;;;;;2.50;1.00;;;16.10;99.90;;;;;;4993761;28;20622;-74
2022/05/27 07:57:56;;;;;;;3.97;0.90;;;16.20;99.90;;;;;;4993587;28;20569;-73
2022/05/27 08:00:28;;;;;;;3.10;1.00;;;16.30;99.90;;;;;;4997258;28;20562;-74
2022/05/27 08:02:54;;;;;;;2.33;1.00;;;16.40;99.90;;;;;;4998725;28;20610;-73
2022/05/27 08:05:23;;;;;;;3.40;1.33;;;16.50;99.90;;;;;;4994861;28;21141;-74
2022/05/27 08:07:50;;;;;;;3.20;1.30;;;16.60;99.90;;;;;;4994908;28;20221;-73
2022/05/27 08:10:19;;;;;;;6.63;1.83;;;16.70;99.90;;;;;;4993916;28;20566;-73
2022/05/27 08:12:45;;;;;;;4.27;1.03;;;16.90;99.90;;;;;;4994830;28;20928;-73
2022/05/27 08:15:12;;;;;;;3.30;1.60;;;17.10;99.90;;;;;;4994329;28;20601;-74
2022/05/27 08:17:39;;;;;;;1.80;1.20;;;17.20;99.90;;;;;;4994697;28;20558;-73
2022/05/27 08:20:07;;;;;;;2.70;0.90;;;17.50;99.90;;;;;;4976052;28;20578;-73
2022/05/27 08:22:34;;;;;;;2.53;1.03;;;17.70;99.90;;;;;;4994653;28;20574;-73
2022/05/27 08:25:00;;;;;;;3.07;1.30;;;18.00;99.90;;;;;;4976866;28;20708;-73
2022/05/27 08:27:26;;;;;;;2.70;1.10;;;18.10;99.90;;;;;;4977014;28;20667;-73
2022/05/27 08:29:52;;;;;;;2.33;1.10;;;18.20;99.90;;;;;;4993482;28;21042;-73
2022/05/27 08:32:18;;;;;;;2.10;1.10;;;18.30;99.90;;;;;;4994493;28;20221;-73
2022/05/27 08:40:30;;;;;;;2.90;1.20;;;19.40;99.90;;;;;;4993302;28;20644;-73
2022/05/27 08:43:05;;;;;;;2.10;1.00;;;20.50;99.90;;;;;;4993657;28;20578;-74
2022/05/27 08:45:43;;;;;;;2.20;1.03;;;21.70;99.90;;;;;;4994201;28;20570;-72
2022/05/27 08:48:10;;;;;;;2.07;1.33;;;22.70;99.90;;;;;;4993984;28;20562;-72
2022/05/27 08:50:52;;;;;;;2.50;0.90;;;23.70;99.90;;;;;;4993152;28;20573;-72
2022/05/27 08:53:36;;;;;;;1.93;1.00;;;24.30;99.90;;;;;;4992586;28;20722;-72
2022/05/27 08:59:26;;;;;;;1.70;1.10;;;24.80;99.90;;;;;;4993196;28;20562;-72
2022/05/27 09:01:57;;;;;;;3.00;1.27;;;25.00;99.90;;;;;;4993748;28;20934;-72
2022/05/27 09:04:41;;;;;;;1.57;1.00;;;25.40;99.90;;;;;;4993726;28;20729;-72
2022/05/27 09:07:23;;;;;;;2.00;1.10;;;25.80;99.90;;;;;;4993763;28;20574;-72
2022/05/27 09:09:50;;;;;;;4.27;1.40;;;26.30;99.90;;;;;;4992703;28;20906;-72
2022/05/27 09:12:41;;;;;;;1.70;1.10;;;26.90;99.90;;;;;;4992377;28;20919;-72
2022/05/27 09:15:33;;;;;;;4.90;1.27;;;27.70;99.90;;;;;;4993396;28;20667;-72
2022/05/27 09:18:23;;;;;;;4.10;1.10;;;28.30;99.90;;;;;;4993557;28;21149;-72
2022/05/27 09:21:02;;;;;;;3.70;1.20;;;28.50;99.90;;;;;;4974699;28;21149;-72
2022/05/27 09:23:56;;;;;;;1.90;1.17;;;28.40;99.90;;;;;;4993353;28;20625;-73
2022/05/27 09:26:45;;;;;;;2.20;1.40;;;28.20;99.90;;;;;;4975674;28;20575;-73
2022/05/27 09:29:29;;;;;;;1.73;1.10;;;28.20;99.90;;;;;;4975579;28;20575;-73
2022/05/27 09:32:11;;;;;;;2.10;1.20;;;28.60;99.90;;;;;;4975494;28;21164;-73
2022/05/27 09:34:41;;;;;;;1.77;1.10;;;29.10;99.90;;;;;;4992943;28;20605;-73
2022/05/27 09:37:12;;;;;;;2.80;1.40;;;29.30;99.90;;;;;;4993124;28;20618;-73
2022/05/27 09:39:38;;;;;;;2.60;1.27;;;29.50;99.90;;;;;;4992554;28;20582;-73
2022/05/27 09:42:06;;;;;;;2.63;1.70;;;30.10;99.90;;;;;;4999819;28;20588;-73
2022/05/27 09:44:55;;;;;;;3.90;1.30;;;30.70;99.90;;;;;;4999938;28;20370;-73
2022/05/27 09:47:25;;;;;;;3.20;1.97;;;31.20;99.90;;;;;;5004634;28;20949;-73
2022/05/27 09:49:59;;;;;;;2.00;1.10;;;31.40;99.90;;;;;;5006050;28;20615;-73
2022/05/27 09:52:27;;;;;;;2.47;1.40;;;31.40;99.20;;;;;;4984792;28;20705;-72
2022/05/27 09:54:59;;;;;;;1.80;1.20;;;31.40;98.70;;;;;;5010104;28;21159;-72
2022/05/27 09:57:30;;;;;;;1.70;1.30;;;31.20;97.00;;;;;;4983220;28;20644;-72
2022/05/27 09:59:58;;;;;;;3.07;1.80;;;31.10;94.20;;;;;;4991956;28;20582;-72
2022/05/27 10:02:30;;;;;;;3.30;1.60;;;30.90;94.10;;;;;;4992618;28;20566;-72
2022/05/27 10:04:58;;;;;;;3.23;1.30;;;30.80;93.30;;;;;;4992897;28;20701;-73
2022/05/27 10:07:50;;;;;;;3.97;1.50;;;30.60;93.80;;;;;;4992058;28;21011;-73
2022/05/27 10:10:31;;;;;;;2.77;1.27;;;30.80;94.10;;;;;;4991951;28;20630;-73
2022/05/27 10:13:12;;;;;;;3.80;2.00;;;31.10;94.00;;;;;;4997697;28;20586;-73
2022/05/27 10:15:39;;;;;;;3.60;1.27;;;31.30;93.90;;;;;;4992379;28;21095;-73
2022/05/27 10:18:26;;;;;;;3.27;1.60;;;31.60;93.80;;;;;;4959000;28;20574;-73
2022/05/27 10:20:58;;;;;;;2.40;1.33;;;31.90;91.70;;;;;;4991489;28;20569;-73
2022/05/27 10:23:30;;;;;;;5.13;2.00;;;31.90;90.30;;;;;;4991970;28;20621;-73
2022/05/27 10:25:56;;;;;;;2.57;1.30;;;32.00;90.60;;;;;;4992259;28;20582;-73
2022/05/27 10:28:31;;;;;;;2.87;1.43;;;32.20;89.80;;;;;;4992186;28;20728;-74
2022/05/27 10:31:04;;;;;;;3.03;1.50;;;32.40;86.00;;;;;;4991470;28;20570;-73
2022/05/27 10:33:41;;;;;;;4.97;2.00;;;32.40;83.20;;;;;;4958746;28;20657;-73
2022/05/27 10:36:34;;;;;;;3.40;1.33;;;32.40;77.00;;;;;;4992027;28;20613;-73
2022/05/27 10:39:08;;;;;;;3.47;1.23;;;32.20;75.70;;;;;;4992155;28;20585;-73
2022/05/27 10:41:53;;;;;;;3.33;1.77;;;32.30;79.70;;;;;;4991786;28;20624;-73
2022/05/27 10:44:37;;;;;;;2.90;1.07;;;32.50;79.40;;;;;;4974502;28;20689;-73
2022/05/27 10:47:22;;;;;;;2.77;1.17;;;32.60;73.70;;;;;;4974885;28;20562;-74
2022/05/27 10:50:15;;;;;;;2.20;1.27;;;32.50;75.90;;;;;;4957865;28;20601;-73
2022/05/27 10:53:02;;;;;;;3.00;1.20;;;32.50;73.20;;;;;;4982169;28;20594;-73
2022/05/27 10:55:49;;;;;;;2.80;1.40;;;32.50;69.90;;;;;;4991809;28;20567;-73
2022/05/27 11:02:04;;;;;;;2.80;1.50;;;32.40;72.50;;;;;;4990844;28;20594;-73
2022/05/27 11:04:56;;;;;;;2.60;1.20;;;32.50;73.40;;;;;;4991538;28;20618;-74
2022/05/27 11:07:31;;;;;;;2.47;1.33;;;32.70;73.50;;;;;;4992088;28;20656;-73
2022/05/27 11:10:10;;;;;;;2.17;1.13;;;32.80;72.10;;;;;;4990973;28;20604;-73
2022/05/27 11:16:04;;;;;;;3.30;1.33;;;32.70;64.70;;;;;;4991424;28;20620;-73
2022/05/27 11:18:44;;;;;;;3.20;1.10;;;32.60;65.20;;;;;;4992121;28;20599;-73
2022/05/27 11:21:42;;;;;;;2.43;1.10;;;32.40;61.90;;;;;;4994955;28;20625;-73
2022/05/27 11:25:06;;;;;;;2.30;1.00;;;32.20;64.10;;;;;;4995056;28;20601;-74
2022/05/27 11:27:43;;;;;;;2.43;0.93;;;32.20;62.90;;;;;;4896909;29;20593;-73
2022/05/27 11:30:41;;;;;;;4.87;1.27;;;32.20;63.10;;;;;;4895968;29;20915;-74
2022/05/27 11:33:31;;;;;;;2.37;1.00;;;32.00;62.80;;;;;;4943996;28;20581;-74
2022/05/27 11:36:12;;;;;;;1.93;0.97;;;31.80;60.60;;;;;;4977739;28;20657;-73
2022/05/27 11:38:53;;;;;;;2.90;0.90;;;31.40;60.90;;;;;;4978037;28;21161;-74
2022/05/27 11:41:28;;;;;;;3.00;1.00;;;31.00;60.50;;;;;;4994534;28;20561;-74
2022/05/27 11:44:42;;;;;;;5.10;1.27;;;30.60;60.40;;;;;;4977458;28;21247;-73
2022/05/27 11:47:23;;;;;;;3.40;1.10;;;30.10;60.50;;;;;;4977348;28;20602;-73
2022/05/27 11:50:01;;;;;;;2.97;1.10;;;29.50;60.00;;;;;;4994344;28;20580;-73
2022/05/27 11:52:42;;;;;;;4.60;1.17;;;28.90;60.10;;;;;;4977774;28;20570;-73
2022/05/27 11:55:42;;;;;;;2.07;0.97;;;28.40;60.60;;;;;;4977640;28;20679;-73
2022/05/27 11:58:20;;;;;;;2.83;1.10;;;27.90;61.50;;;;;;4993776;28;20574;-72
2022/05/27 12:00:56;;;;;;;3.00;1.10;;;27.40;62.20;;;;;;4993973;28;21140;-73
2022/05/27 12:03:39;;;;;;;3.10;1.20;;;27.00;63.20;;;;;;4994788;28;21128;-73
2022/05/27 12:06:11;;;;;;;3.30;1.40;;;26.60;63.60;;;;;;4994752;28;20562;-73
2022/05/27 12:09:06;;;;;;;2.63;1.40;;;26.40;65.00;;;;;;4994857;28;20581;-73
2022/05/27 12:11:46;;;;;;;2.77;0.97;;;26.40;67.00;;;;;;4993608;28;20973;-72
2022/05/27 12:14:23;;;;;;;3.73;1.17;;;26.60;67.50;;;;;;4994564;28;20600;-73
2022/05/27 12:16:50;;;;;;;2.53;1.00;;;26.60;67.00;;;;;;4977091;28;20679;-73
2022/05/27 12:19:31;;;;;;;4.13;1.27;;;26.60;67.30;;;;;;4993951;28;20566;-72
2022/05/27 12:22:21;;;;;;;2.63;1.10;;;26.60;68.00;;;;;;4994393;28;20874;-72
2022/05/27 12:24:53;;;;;;;4.83;1.13;;;26.60;66.80;;;;;;4976974;28;20958;-72
2022/05/27 12:27:19;;;;;;;2.97;1.17;;;26.50;66.30;;;;;;4976939;28;20946;-73
2022/05/27 12:29:48;;;;;;;3.80;1.80;;;26.40;67.10;;;;;;4993483;28;21258;-72
2022/05/27 12:32:19;;;;;;;2.97;1.80;;;26.30;66.80;;;;;;4993693;28;20578;-72
2022/05/27 12:34:48;;;;;;;2.43;1.60;;;26.30;66.40;;;;;;4993936;28;20960;-72
2022/05/27 12:37:26;;;;;;;7.00;1.57;;;26.20;66.30;;;;;;4993864;28;20621;-72
2022/05/27 12:40:13;;;;;;;2.87;1.23;;;26.10;64.70;;;;;;4993105;28;20574;-73
2022/05/27 12:42:42;;;;;;;2.00;0.90;;;26.00;64.40;;;;;;4993708;28;20577;-73
2022/05/27 12:45:38;;;;;;;3.43;1.00;;;25.90;65.10;;;;;;4993803;28;20606;-73
2022/05/27 12:48:05;;;;;;;3.33;1.20;;;25.80;63.80;;;;;;4994037;28;21122;-73
2022/05/27 12:50:38;;;;;;;5.27;1.10;;;25.80;63.80;;;;;;4959742;28;20575;-73
2022/05/27 12:53:38;;;;;;;3.83;1.20;;;25.70;62.30;;;;;;4993987;28;20617;-73
2022/05/27 13:02:21;;;;;;;4.70;1.63;;;25.20;61.40;;;;;;4993830;28;20551;-75
2022/05/27 13:04:49;;;;;;;4.73;1.30;;;25.10;61.00;;;;;;4976276;28;20606;-75
2022/05/27 13:07:33;;;;;;;4.63;1.00;;;24.90;61.50;;;;;;4993731;28;20562;-75
2022/05/27 13:10:17;;;;;;;4.73;1.00;;;24.70;60.90;;;;;;4992573;28;20575;-75
2022/05/27 13:12:52;;;;;;;3.80;1.43;;;24.60;59.50;;;;;;4993502;28;20616;-76
2022/05/27 13:15:22;;;;;;;3.30;1.50;;;24.50;61.50;;;;;;4993294;28;20652;-76
2022/05/27 13:18:09;;;;;;;4.33;1.40;;;24.40;61.00;;;;;;4993564;28;20962;-75
2022/05/27 13:21:14;;;;;;;4.17;1.47;;;24.30;60.00;;;;;;4975142;28;20563;-76
2022/05/27 13:23:53;;;;;;;7.20;2.07;;;24.30;60.00;;;;;;4993194;28;20604;-75
2022/05/27 13:26:57;;;;;;;3.07;0.97;;;24.30;59.40;;;;;;4992909;28;20946;-75
2022/05/27 13:29:28;;;;;;;4.57;1.53;;;24.30;60.30;;;;;;4992685;28;20566;-75
2022/05/27 13:31:59;;;;;;;4.37;1.13;;;24.30;59.70;;;;;;4992792;28;20566;-75
2022/05/27 13:34:35;;;;;;;7.63;2.33;;;24.20;60.70;;;;;;4993091;28;21038;-75
2022/05/27 13:37:05;;;;;;;3.50;1.40;;;24.20;60.30;;;;;;4993073;28;20728;-74
2022/05/27 13:39:46;;;;;;;5.70;3.07;;;24.20;60.80;;;;;;4992016;28;20624;-75
2022/05/27 13:42:22;;;;;;;3.27;1.80;;;24.20;60.20;;;;;;4974323;28;20609;-75
2022/05/27 13:44:49;;;;;;;5.10;1.70;;;24.10;60.20;;;;;;4994681;28;20606;-75
2022/05/27 13:47:23;;;;;;;4.70;2.00;;;24.10;61.10;;;;;;4993236;28;20581;-75
2022/05/27 13:49:49;;;;;;;5.00;0.97;;;24.10;60.00;;;;;;4992126;28;20566;-75
2022/05/27 13:52:32;;;;;;;5.60;1.20;;;24.00;59.90;;;;;;4992461;28;20669;-75
2022/05/27 13:55:11;;;;;;;3.73;1.50;;;23.90;59.40;;;;;;4997050;28;20669;-75
2022/05/27 13:57:41;;;;;;;4.13;1.13;;;23.90;58.80;;;;;;5003847;28;20641;-75